Vitality — 2JBU7 — position and weather

sailwx.info

Track history (hours):
 
Tides and Currents Weather Stations Pressure Air Temp Water Temp Dewpoint Dewpoint Depression Visibility Wind Speed Wind Dir Waves Ship Positions

Vitality

Last reported at 2017-Sep-23 20:14 UTC. Time now 2017-Sep-25 01:11 UTC.
Position N 49°29' W 004°13'.

Length 90 m; draft 6.2 m.

Type: Cargo ship. MMSI: 235114599.

Date/timePositionNaut miles runAvg speedWind from/ knotsBaromVisibWave heightAir tempDewpointWater temp
2017-Sep-23 20:14N 49°29' W 004°13'2 7.2
2017-Sep-23 20:00N 49°30' W 004°11'  
2017-Sep-21 12:17N 53°14' E 004°43'3 9.7
2017-Sep-21 11:58N 53°16' E 004°47'3 6.9
2017-Sep-21 11:30N 53°17' E 004°52'3 6.6
2017-Sep-21 11:00N 53°19' E 004°57'4 8.5
2017-Sep-21 10:30N 53°19' E 005°04'4 8.2
2017-Sep-21 10:00N 53°18' E 005°10'4 7.8
2017-Sep-21 09:30N 53°14' E 005°12'2 4.7
2017-Sep-21 09:00N 53°14' E 005°16'4 7.4
2017-Sep-21 08:31N 53°11' E 005°20'3 5.3
2017-Sep-21 08:00N 53°11' E 005°25'1 1.1
2017-Sep-21 07:29N 53°11' E 005°26'0 0.0
2017-Sep-21 06:59N 53°11' E 005°26'0 0.0
2017-Sep-21 06:29N 53°11' E 005°26'0 0.0
2017-Sep-21 05:56N 53°11' E 005°26'0 0.0
2017-Sep-21 05:29N 53°11' E 005°26'0 0.0
2017-Sep-21 04:59N 53°11' E 005°26'0 0.0
2017-Sep-21 04:29N 53°11' E 005°26'0 0.0
2017-Sep-21 03:59N 53°11' E 005°26'0 0.0
2017-Sep-21 03:29N 53°11' E 005°26'0 0.0
2017-Sep-21 02:59N 53°11' E 005°26'0 0.0
2017-Sep-21 02:29N 53°11' E 005°26'0 0.0
2017-Sep-21 01:59N 53°11' E 005°26'0 0.0
2017-Sep-21 01:29N 53°11' E 005°26'0 0.0
2017-Sep-21 00:59N 53°11' E 005°26'0 0.0
2017-Sep-21 00:29N 53°11' E 005°26'0 0.0
2017-Sep-20 23:59N 53°11' E 005°26'0 0.0
2017-Sep-20 23:29N 53°11' E 005°26'0 0.0
2017-Sep-20 22:59N 53°11' E 005°26'0 0.0
2017-Sep-20 22:29N 53°11' E 005°26'0 0.0
2017-Sep-20 21:59N 53°11' E 005°26'0 0.0
2017-Sep-20 21:29N 53°11' E 005°26'0 0.0
2017-Sep-20 20:59N 53°11' E 005°26'0 0.0
2017-Sep-20 20:29N 53°11' E 005°26'0 0.0
2017-Sep-20 19:59N 53°11' E 005°26'0 0.0
2017-Sep-20 19:29N 53°11' E 005°26'0 0.0
2017-Sep-20 18:59N 53°11' E 005°26'0 0.0
2017-Sep-20 18:29N 53°11' E 005°26'0 0.0
2017-Sep-20 17:59N 53°11' E 005°26'0 0.0
2017-Sep-20 17:29N 53°11' E 005°26'0 0.0
2017-Sep-20 16:59N 53°11' E 005°26'0 0.0
2017-Sep-20 16:29N 53°11' E 005°26'0 0.0
2017-Sep-20 15:59N 53°11' E 005°26'0 0.0
2017-Sep-20 15:29N 53°11' E 005°26'0 0.0
2017-Sep-20 14:59N 53°11' E 005°26'0 0.0
2017-Sep-20 13:59N 53°11' E 005°26'0 0.0
2017-Sep-20 13:29N 53°11' E 005°26'0 0.0
2017-Sep-20 12:59N 53°11' E 005°26'0 0.0
2017-Sep-20 12:29N 53°11' E 005°26'0 0.0
2017-Sep-20 11:59N 53°11' E 005°26'0 0.0
2017-Sep-20 11:29N 53°11' E 005°26'0 0.0
2017-Sep-20 10:59N 53°11' E 005°26'0 0.0
2017-Sep-20 10:30N 53°11' E 005°26'0 0.1
2017-Sep-20 10:00N 53°11' E 005°26'0 0.0
2017-Sep-20 09:30N 53°11' E 005°26'0 0.1
2017-Sep-20 09:00N 53°11' E 005°26'1 2.9
2017-Sep-20 08:30N 53°11' E 005°23'5 9.3
2017-Sep-20 08:00N 53°13' E 005°17'5 9.9
2017-Sep-20 07:31N 53°16' E 005°10'4 8.3
2017-Sep-20 07:00N 53°19' E 005°07'3 6.7
2017-Sep-20 06:30N 53°19' E 005°02'3 5.5
2017-Sep-20 06:00N 53°19' E 004°57'4 7.5
2017-Sep-20 05:30N 53°17' E 004°51'611.1
2017-Sep-20 05:00N 53°15' E 004°43'611.7
2017-Sep-20 04:29N 53°10' E 004°36'611.6
2017-Sep-20 04:00N 53°06' E 004°30'611.4
2017-Sep-20 03:30N 53°01' E 004°24'611.2
2017-Sep-20 03:00N 52°57' E 004°19'611.3
2017-Sep-20 02:30N 52°52' E 004°15'611.3
2017-Sep-20 02:00N 52°47' E 004°09'611.1
2017-Sep-20 01:30N 52°43' E 004°03'510.9
2017-Sep-20 01:00N 52°39' E 003°57'510.6
2017-Sep-20 00:30N 52°35' E 003°51'710.2
2017-Sep-19 23:51N 52°30' E 003°44'14 9.5
2017-Sep-19 22:23N 52°18' E 003°34'26 8.3
2017-Sep-19 19:13N 51°52' E 003°22'2 8.3
2017-Sep-19 18:56N 51°50' E 003°20'4 8.6
2017-Sep-19 18:30N 51°47' E 003°17'4 8.6
2017-Sep-19 17:59N 51°43' E 003°18'5 9.8
2017-Sep-19 17:30N 51°38' E 003°21'610.9
2017-Sep-19 16:59N 51°33' E 003°25'510.7
2017-Sep-19 16:30N 51°29' E 003°30'510.1
2017-Sep-19 16:00N 51°26' E 003°37'5 9.6
2017-Sep-19 15:31N 51°24' E 003°43'611.2
2017-Sep-19 15:00N 51°21' E 003°51'510.8
2017-Sep-19 14:30N 51°24' E 003°57'4 7.2
2017-Sep-19 14:00N 51°27' E 004°01'0 0.9
2017-Sep-19 13:30N 51°28' E 004°00'0 0.5
2017-Sep-19 12:59N 51°27' E 004°00'0 0.0
2017-Sep-19 12:29N 51°27' E 004°00'0 0.0
2017-Sep-19 11:59N 51°27' E 004°00'0 0.0
2017-Sep-19 11:23N 51°27' E 004°00'0 0.0
2017-Sep-19 10:59N 51°27' E 004°00'0 0.0
2017-Sep-19 10:26N 51°27' E 004°00'0 0.0
2017-Sep-19 09:59N 51°27' E 004°00'0 0.0
2017-Sep-19 09:29N 51°27' E 004°00'0 0.0
2017-Sep-19 08:59N 51°27' E 004°00'0 0.0
2017-Sep-19 08:29N 51°27' E 004°00'0 0.0
2017-Sep-19 07:59N 51°27' E 004°00'0 0.0
2017-Sep-19 07:29N 51°27' E 004°00'0 0.0
2017-Sep-19 06:59N 51°27' E 004°00'0 0.0
2017-Sep-19 06:29N 51°27' E 004°00'0 0.0
2017-Sep-19 05:59N 51°27' E 004°00'0 0.0
2017-Sep-19 05:29N 51°27' E 004°00'0 0.0
2017-Sep-19 04:59N 51°27' E 004°00'0 0.0
2017-Sep-19 04:29N 51°27' E 004°00'0 0.0
2017-Sep-19 03:59N 51°27' E 004°00'0 0.0
2017-Sep-19 03:29N 51°27' E 004°00'0 0.0
2017-Sep-19 02:59N 51°27' E 004°00'0 0.0
2017-Sep-19 02:29N 51°27' E 004°00'0 0.0
2017-Sep-19 01:59N 51°27' E 004°00'0 0.0
2017-Sep-19 01:29N 51°27' E 004°00'0 0.0
2017-Sep-19 00:59N 51°27' E 004°00'0 0.0
2017-Sep-19 00:29N 51°27' E 004°00'0 0.0
2017-Sep-18 23:59N 51°27' E 004°00'0 0.0
2017-Sep-18 23:29N 51°27' E 004°00'0 0.0
2017-Sep-18 22:59N 51°27' E 004°00'0 0.0
2017-Sep-18 22:29N 51°27' E 004°00'0 0.0
2017-Sep-18 21:59N 51°27' E 004°00'0 0.0
2017-Sep-18 21:29N 51°27' E 004°00'0 0.0
2017-Sep-18 20:59N 51°27' E 004°00'0 0.0
2017-Sep-18 20:29N 51°27' E 004°00'0 0.0
2017-Sep-18 19:59N 51°27' E 004°00'0 0.0
2017-Sep-18 19:23N 51°27' E 004°00'0 0.0
2017-Sep-18 18:59N 51°27' E 004°00'0 0.0
2017-Sep-18 18:29N 51°27' E 004°00'0 0.0
2017-Sep-18 17:59N 51°27' E 004°00'0 0.0
2017-Sep-18 17:29N 51°27' E 004°00'0 0.0
2017-Sep-18 16:59N 51°27' E 004°00'0 0.0
2017-Sep-18 16:29N 51°27' E 004°00'0 0.0
2017-Sep-18 15:59N 51°27' E 004°00'0 0.0
2017-Sep-18 15:29N 51°27' E 004°00'0 0.0
2017-Sep-18 14:59N 51°27' E 004°00'0 0.0
2017-Sep-18 14:29N 51°27' E 004°00'0 0.0
2017-Sep-18 13:53N 51°27' E 004°00'0 0.0
2017-Sep-18 13:29N 51°27' E 004°00'0 0.0
2017-Sep-18 12:56N 51°27' E 004°00'0 0.0
2017-Sep-18 12:26N 51°27' E 004°00'0 0.0
2017-Sep-18 11:59N 51°27' E 004°00'0 0.3
2017-Sep-18 11:29N 51°28' E 004°00'0 0.0
2017-Sep-18 11:00N 51°28' E 004°00'0 0.6
2017-Sep-18 10:30N 51°27' E 004°01'1 2.0
2017-Sep-18 10:00N 51°26' E 004°01'5 9.9
2017-Sep-18 09:30N 51°22' E 003°56'5 9.5
2017-Sep-18 09:00N 51°20' E 003°49'0 0.5
2017-Sep-18 08:31N 51°20' E 003°49'0 0.5
2017-Sep-18 08:01N 51°20' E 003°49'2 4.2
2017-Sep-18 07:31N 51°18' E 003°50'4 7.6
2017-Sep-18 07:01N 51°14' E 003°49'0 0.2
2017-Sep-18 06:29N 51°14' E 003°48'0 0.0
2017-Sep-18 05:59N 51°14' E 003°48'0 0.0
2017-Sep-18 05:29N 51°14' E 003°48'0 0.0
2017-Sep-18 04:59N 51°14' E 003°48'0 0.0
2017-Sep-18 04:29N 51°14' E 003°48'0 0.0
2017-Sep-18 03:59N 51°14' E 003°48'0 0.0
2017-Sep-18 03:29N 51°14' E 003°48'0 0.0
2017-Sep-18 02:59N 51°14' E 003°48'0 0.0
2017-Sep-18 02:29N 51°14' E 003°48'0 0.0
2017-Sep-18 01:59N 51°14' E 003°48'0 0.0
2017-Sep-18 01:29N 51°14' E 003°48'0 0.0
2017-Sep-18 00:59N 51°14' E 003°48'0 0.0
2017-Sep-18 00:29N 51°14' E 003°48'0 0.0
2017-Sep-17 23:59N 51°14' E 003°48'0 0.0
2017-Sep-17 23:29N 51°14' E 003°48'0 0.0
2017-Sep-17 22:59N 51°14' E 003°48'0 0.0
2017-Sep-17 22:30N 51°14' E 003°48'0 0.2
2017-Sep-17 21:59N 51°14' E 003°48'0 0.0
2017-Sep-17 21:30N 51°14' E 003°48'0 0.0
2017-Sep-17 20:59N 51°14' E 003°48'0 0.0
2017-Sep-17 20:29N 51°14' E 003°48'0 0.0
2017-Sep-17 19:59N 51°14' E 003°48'0 0.0
2017-Sep-17 19:29N 51°14' E 003°48'0 0.0
2017-Sep-17 18:59N 51°14' E 003°48'0 0.0
2017-Sep-17 18:29N 51°14' E 003°48'0 0.0
2017-Sep-17 17:59N 51°14' E 003°48'0 0.0
2017-Sep-17 17:30N 51°14' E 003°48'0 0.0
2017-Sep-17 16:59N 51°14' E 003°48'0 0.0
2017-Sep-17 16:29N 51°14' E 003°48'0 0.0
2017-Sep-17 16:00N 51°14' E 003°48'0 0.0
2017-Sep-17 15:29N 51°14' E 003°48'0 0.0
2017-Sep-17 14:59N 51°14' E 003°48'0 0.0
2017-Sep-17 14:29N 51°14' E 003°48'0 0.0
2017-Sep-17 13:59N 51°14' E 003°48'0 0.0
2017-Sep-17 13:29N 51°14' E 003°48'0 0.0
2017-Sep-17 13:00N 51°14' E 003°48'0 0.0
2017-Sep-17 12:29N 51°14' E 003°48'0 0.0
2017-Sep-17 11:59N 51°14' E 003°48'0 0.0
2017-Sep-17 11:29N 51°14' E 003°48'0 0.0
2017-Sep-17 10:59N 51°14' E 003°48'0 0.0
2017-Sep-17 10:29N 51°14' E 003°48'0 0.0
2017-Sep-17 10:00N 51°14' E 003°48'0 0.0
2017-Sep-17 09:29N 51°14' E 003°48'0 0.0
2017-Sep-17 08:59N 51°14' E 003°48'0 0.0
2017-Sep-17 08:29N 51°14' E 003°48'0 0.0
2017-Sep-17 07:59N 51°14' E 003°48'0 0.0
2017-Sep-17 07:29N 51°14' E 003°48'0 0.0
2017-Sep-17 06:59N 51°14' E 003°48'0 0.0
2017-Sep-17 06:29N 51°14' E 003°48'0 0.0
2017-Sep-17 05:59N 51°14' E 003°48'0 0.0
2017-Sep-17 05:29N 51°14' E 003°48'0 0.0
2017-Sep-17 04:59N 51°14' E 003°48'0 0.0
2017-Sep-17 04:29N 51°14' E 003°48'0 0.0
2017-Sep-17 03:59N 51°14' E 003°48'0 0.0
2017-Sep-17 03:30N 51°14' E 003°48'0 0.0
2017-Sep-17 02:59N 51°14' E 003°48'0 0.0
2017-Sep-17 02:30N 51°14' E 003°48'0 0.0
2017-Sep-17 02:00N 51°14' E 003°48'0 0.0
2017-Sep-17 01:29N 51°14' E 003°48'0 0.0
2017-Sep-17 00:59N 51°14' E 003°48'0 0.0
2017-Sep-17 00:30N 51°14' E 003°48'0 0.0
2017-Sep-16 23:59N 51°14' E 003°48'0 0.0
2017-Sep-16 23:30N 51°14' E 003°48'0 0.0
2017-Sep-16 22:59N 51°14' E 003°48'0 0.0
2017-Sep-16 22:30N 51°14' E 003°48'0 0.0
2017-Sep-16 21:59N 51°14' E 003°48'0 0.0
2017-Sep-16 21:29N 51°14' E 003°48'0 0.0
2017-Sep-16 20:59N 51°14' E 003°48'0 0.0
2017-Sep-16 20:29N 51°14' E 003°48'0 0.0
2017-Sep-16 19:59N 51°14' E 003°48'0 0.0
2017-Sep-16 19:29N 51°14' E 003°48'0 0.0
2017-Sep-16 18:59N 51°14' E 003°48'0 0.0
2017-Sep-16 18:29N 51°14' E 003°48'0 0.0
2017-Sep-16 17:59N 51°14' E 003°48'0 0.0
2017-Sep-16 17:30N 51°14' E 003°48'0 0.0
2017-Sep-16 16:59N 51°14' E 003°48'0 0.0
2017-Sep-16 16:29N 51°14' E 003°48'0 0.0
2017-Sep-16 16:00N 51°14' E 003°48'0 0.0
2017-Sep-16 15:29N 51°14' E 003°48'0 0.0
2017-Sep-16 14:59N 51°14' E 003°48'0 0.0
2017-Sep-16 14:29N 51°14' E 003°48'0 0.0
2017-Sep-16 13:59N 51°14' E 003°48'0 0.0
2017-Sep-16 13:29N 51°14' E 003°48'0 0.0
2017-Sep-16 12:59N 51°14' E 003°48'0 0.0
2017-Sep-16 12:27N 51°14' E 003°48'0 0.0
2017-Sep-16 11:59N 51°14' E 003°48'0 0.0
2017-Sep-16 11:29N 51°14' E 003°48'0 0.0
2017-Sep-16 10:59N 51°14' E 003°48'0 0.0
2017-Sep-16 10:29N 51°14' E 003°48'0 0.0
2017-Sep-16 10:01N 51°14' E 003°48'2 4.1
2017-Sep-16 09:31N 51°16' E 003°50'3 5.6
2017-Sep-16 09:00N 51°19' E 003°50'0 0.0
2017-Sep-16 08:30N 51°19' E 003°50'1 1.7
2017-Sep-16 08:00N 51°20' E 003°49'1 1.4
2017-Sep-16 07:30N 51°20' E 003°49'2 4.1
2017-Sep-16 07:00N 51°21' E 003°46'4 7.2
2017-Sep-16 06:30N 51°24' E 003°43'3 6.8
2017-Sep-16 06:00N 51°26' E 003°38'4 8.3
2017-Sep-16 05:30N 51°25' E 003°32'5 9.9
2017-Sep-16 05:00N 51°24' E 003°24'5 9.2
2017-Sep-16 04:30N 51°24' E 003°16'4 8.4
2017-Sep-16 04:00N 51°24' E 003°10'4 8.0
2017-Sep-16 03:30N 51°24' E 003°03'4 7.9
2017-Sep-16 03:00N 51°23' E 002°58'4 8.2
2017-Sep-16 02:30N 51°21' E 002°51'4 8.5
2017-Sep-16 02:00N 51°21' E 002°44'3 6.6
2017-Sep-16 01:30N 51°22' E 002°39'2 4.9
2017-Sep-16 01:00N 51°21' E 002°36'1 1.5
2017-Sep-16 00:28N 51°20' E 002°35'0 0.0
2017-Sep-15 23:58N 51°20' E 002°35'0 0.1
2017-Sep-15 23:28N 51°20' E 002°36'0 0.1
2017-Sep-15 22:58N 51°20' E 002°36'0 0.0
2017-Sep-15 22:28N 51°20' E 002°36'0 0.0
2017-Sep-15 21:55N 51°20' E 002°36'0 0.0
2017-Sep-15 21:28N 51°20' E 002°36'0 0.0
2017-Sep-15 20:55N 51°20' E 002°36'0 0.1
2017-Sep-15 20:28N 51°20' E 002°35'0 0.0
2017-Sep-15 19:58N 51°20' E 002°36'0 0.0
2017-Sep-15 19:28N 51°20' E 002°36'0 0.0
2017-Sep-15 18:58N 51°20' E 002°36'0 0.0
2017-Sep-15 18:28N 51°20' E 002°36'0 0.1
2017-Sep-15 17:58N 51°20' E 002°35'0 0.1
2017-Sep-15 17:28N 51°20' E 002°35'0 0.1
2017-Sep-15 16:58N 51°20' E 002°35'0 0.0
2017-Sep-15 16:28N 51°20' E 002°35'0 0.0
2017-Sep-15 15:58N 51°20' E 002°35'0 0.0
2017-Sep-15 15:28N 51°20' E 002°35'0 0.0
2017-Sep-15 14:58N 51°20' E 002°35'0 0.0
2017-Sep-15 14:28N 51°20' E 002°35'0 0.0
2017-Sep-15 13:58N 51°20' E 002°35'0 0.0
2017-Sep-15 13:28N 51°20' E 002°35'0 0.1
2017-Sep-15 12:58N 51°20' E 002°35'0 0.1
2017-Sep-15 12:28N 51°20' E 002°36'0 0.2
2017-Sep-15 11:59N 51°20' E 002°36'2 4.3
2017-Sep-15 11:31N 51°21' E 002°33'4 7.0
2017-Sep-15 11:01N 51°21' E 002°27'5 9.9
2017-Sep-15 10:31N 51°19' E 002°20'510.2
2017-Sep-15 10:00N 51°15' E 002°14'510.3
2017-Sep-15 09:30N 51°13' E 002°07'510.4
2017-Sep-15 09:01N 51°11' E 001°59'510.7
2017-Sep-15 08:30N 51°08' E 001°52'510.7
2017-Sep-15 08:00N 51°04' E 001°46'711.1
2017-Sep-15 07:24N 50°59' E 001°38'112 8.8
2017-Sep-14 18:33N 50°07' W 000°58'1 8.1
2017-Sep-14 18:29N 50°07' W 000°59'4 8.5
2017-Sep-14 18:00N 50°06' W 001°05'5 8.9
2017-Sep-14 17:29N 50°05' W 001°12'4 9.3
2017-Sep-14 17:00N 50°04' W 001°19'5 9.9
2017-Sep-14 16:30N 50°03' W 001°27'510.4
2017-Sep-14 16:00N 50°01' W 001°34'510.9
2017-Sep-14 15:30N 49°59' W 001°42'611.3
2017-Sep-14 15:00N 49°58' W 001°51'611.5
2017-Sep-14 14:30N 49°57' W 001°59'611.4
2017-Sep-14 14:00N 49°55' W 002°08'120 8.4
2017-Sep-13 23:44N 48°51' W 004°45'2 8.6
2017-Sep-13 23:31N 48°50' W 004°47'4 8.8
2017-Sep-13 23:00N 48°48' W 004°53'5 9.3
2017-Sep-13 22:31N 48°45' W 004°59'5 9.3
2017-Sep-13 22:00N 48°42' W 005°04'5 9.6
2017-Sep-13 21:30N 48°40' W 005°10'5 9.7
2017-Sep-13 21:01N 48°36' W 005°15'5 9.5
2017-Sep-13 20:31N 48°33' W 005°20'  
Track history (hours):
 
Tides and Currents Weather Stations Pressure Air Temp Water Temp Dewpoint Dewpoint Depression Visibility Wind Speed Wind Dir Waves Ship Positions

Vitality

Last reported at 2017-Sep-23 20:14 UTC. Time now 2017-Sep-25 01:11 UTC.
Position N 49°29' W 004°13'.

Length 90 m; draft 6.2 m.

Type: Cargo ship. MMSI: 235114599.

Date/timePositionNaut miles runAvg speedWind from/ knotsBaromVisibWave heightAir tempDewpointWater temp
2017-Sep-23 20:14N 49°29' W 004°13'2 7.2
2017-Sep-23 20:00N 49°30' W 004°11'  
2017-Sep-21 12:17N 53°14' E 004°43'3 9.7
2017-Sep-21 11:58N 53°16' E 004°47'3 6.9
2017-Sep-21 11:30N 53°17' E 004°52'3 6.6
2017-Sep-21 11:00N 53°19' E 004°57'4 8.5
2017-Sep-21 10:30N 53°19' E 005°04'4 8.2
2017-Sep-21 10:00N 53°18' E 005°10'4 7.8
2017-Sep-21 09:30N 53°14' E 005°12'2 4.7
2017-Sep-21 09:00N 53°14' E 005°16'4 7.4
2017-Sep-21 08:31N 53°11' E 005°20'3 5.3
2017-Sep-21 08:00N 53°11' E 005°25'1 1.1
2017-Sep-21 07:29N 53°11' E 005°26'0 0.0
2017-Sep-21 06:59N 53°11' E 005°26'0 0.0
2017-Sep-21 06:29N 53°11' E 005°26'0 0.0
2017-Sep-21 05:56N 53°11' E 005°26'0 0.0
2017-Sep-21 05:29N 53°11' E 005°26'0 0.0
2017-Sep-21 04:59N 53°11' E 005°26'0 0.0
2017-Sep-21 04:29N 53°11' E 005°26'0 0.0
2017-Sep-21 03:59N 53°11' E 005°26'0 0.0
2017-Sep-21 03:29N 53°11' E 005°26'0 0.0
2017-Sep-21 02:59N 53°11' E 005°26'0 0.0
2017-Sep-21 02:29N 53°11' E 005°26'0 0.0
2017-Sep-21 01:59N 53°11' E 005°26'0 0.0
2017-Sep-21 01:29N 53°11' E 005°26'0 0.0
2017-Sep-21 00:59N 53°11' E 005°26'0 0.0
2017-Sep-21 00:29N 53°11' E 005°26'0 0.0
2017-Sep-20 23:59N 53°11' E 005°26'0 0.0
2017-Sep-20 23:29N 53°11' E 005°26'0 0.0
2017-Sep-20 22:59N 53°11' E 005°26'0 0.0
2017-Sep-20 22:29N 53°11' E 005°26'0 0.0
2017-Sep-20 21:59N 53°11' E 005°26'0 0.0
2017-Sep-20 21:29N 53°11' E 005°26'0 0.0
2017-Sep-20 20:59N 53°11' E 005°26'0 0.0
2017-Sep-20 20:29N 53°11' E 005°26'0 0.0
2017-Sep-20 19:59N 53°11' E 005°26'0 0.0
2017-Sep-20 19:29N 53°11' E 005°26'0 0.0
2017-Sep-20 18:59N 53°11' E 005°26'0 0.0
2017-Sep-20 18:29N 53°11' E 005°26'0 0.0
2017-Sep-20 17:59N 53°11' E 005°26'0 0.0
2017-Sep-20 17:29N 53°11' E 005°26'0 0.0
2017-Sep-20 16:59N 53°11' E 005°26'0 0.0
2017-Sep-20 16:29N 53°11' E 005°26'0 0.0
2017-Sep-20 15:59N 53°11' E 005°26'0 0.0
2017-Sep-20 15:29N 53°11' E 005°26'0 0.0
2017-Sep-20 14:59N 53°11' E 005°26'0 0.0
2017-Sep-20 13:59N 53°11' E 005°26'0 0.0
2017-Sep-20 13:29N 53°11' E 005°26'0 0.0
2017-Sep-20 12:59N 53°11' E 005°26'0 0.0
2017-Sep-20 12:29N 53°11' E 005°26'0 0.0
2017-Sep-20 11:59N 53°11' E 005°26'0 0.0
2017-Sep-20 11:29N 53°11' E 005°26'0 0.0
2017-Sep-20 10:59N 53°11' E 005°26'0 0.0
2017-Sep-20 10:30N 53°11' E 005°26'0 0.1
2017-Sep-20 10:00N 53°11' E 005°26'0 0.0
2017-Sep-20 09:30N 53°11' E 005°26'0 0.1
2017-Sep-20 09:00N 53°11' E 005°26'1 2.9
2017-Sep-20 08:30N 53°11' E 005°23'5 9.3
2017-Sep-20 08:00N 53°13' E 005°17'5 9.9
2017-Sep-20 07:31N 53°16' E 005°10'4 8.3
2017-Sep-20 07:00N 53°19' E 005°07'3 6.7
2017-Sep-20 06:30N 53°19' E 005°02'3 5.5
2017-Sep-20 06:00N 53°19' E 004°57'4 7.5
2017-Sep-20 05:30N 53°17' E 004°51'611.1
2017-Sep-20 05:00N 53°15' E 004°43'611.7
2017-Sep-20 04:29N 53°10' E 004°36'611.6
2017-Sep-20 04:00N 53°06' E 004°30'611.4
2017-Sep-20 03:30N 53°01' E 004°24'611.2
2017-Sep-20 03:00N 52°57' E 004°19'611.3
2017-Sep-20 02:30N 52°52' E 004°15'611.3
2017-Sep-20 02:00N 52°47' E 004°09'611.1
2017-Sep-20 01:30N 52°43' E 004°03'510.9
2017-Sep-20 01:00N 52°39' E 003°57'510.6
2017-Sep-20 00:30N 52°35' E 003°51'710.2
2017-Sep-19 23:51N 52°30' E 003°44'14 9.5
2017-Sep-19 22:23N 52°18' E 003°34'26 8.3
2017-Sep-19 19:13N 51°52' E 003°22'2 8.3
2017-Sep-19 18:56N 51°50' E 003°20'4 8.6
2017-Sep-19 18:30N 51°47' E 003°17'4 8.6
2017-Sep-19 17:59N 51°43' E 003°18'5 9.8
2017-Sep-19 17:30N 51°38' E 003°21'610.9
2017-Sep-19 16:59N 51°33' E 003°25'510.7
2017-Sep-19 16:30N 51°29' E 003°30'510.1
2017-Sep-19 16:00N 51°26' E 003°37'5 9.6
2017-Sep-19 15:31N 51°24' E 003°43'611.2
2017-Sep-19 15:00N 51°21' E 003°51'510.8
2017-Sep-19 14:30N 51°24' E 003°57'4 7.2
2017-Sep-19 14:00N 51°27' E 004°01'0 0.9
2017-Sep-19 13:30N 51°28' E 004°00'0 0.5
2017-Sep-19 12:59N 51°27' E 004°00'0 0.0
2017-Sep-19 12:29N 51°27' E 004°00'0 0.0
2017-Sep-19 11:59N 51°27' E 004°00'0 0.0
2017-Sep-19 11:23N 51°27' E 004°00'0 0.0
2017-Sep-19 10:59N 51°27' E 004°00'0 0.0
2017-Sep-19 10:26N 51°27' E 004°00'0 0.0
2017-Sep-19 09:59N 51°27' E 004°00'0 0.0
2017-Sep-19 09:29N 51°27' E 004°00'0 0.0
2017-Sep-19 08:59N 51°27' E 004°00'0 0.0
2017-Sep-19 08:29N 51°27' E 004°00'0 0.0
2017-Sep-19 07:59N 51°27' E 004°00'0 0.0
2017-Sep-19 07:29N 51°27' E 004°00'0 0.0
2017-Sep-19 06:59N 51°27' E 004°00'0 0.0
2017-Sep-19 06:29N 51°27' E 004°00'0 0.0
2017-Sep-19 05:59N 51°27' E 004°00'0 0.0
2017-Sep-19 05:29N 51°27' E 004°00'0 0.0
2017-Sep-19 04:59N 51°27' E 004°00'0 0.0
2017-Sep-19 04:29N 51°27' E 004°00'0 0.0
2017-Sep-19 03:59N 51°27' E 004°00'0 0.0
2017-Sep-19 03:29N 51°27' E 004°00'0 0.0
2017-Sep-19 02:59N 51°27' E 004°00'0 0.0
2017-Sep-19 02:29N 51°27' E 004°00'0 0.0
2017-Sep-19 01:59N 51°27' E 004°00'0 0.0
2017-Sep-19 01:29N 51°27' E 004°00'0 0.0
2017-Sep-19 00:59N 51°27' E 004°00'0 0.0
2017-Sep-19 00:29N 51°27' E 004°00'0 0.0
2017-Sep-18 23:59N 51°27' E 004°00'0 0.0
2017-Sep-18 23:29N 51°27' E 004°00'0 0.0
2017-Sep-18 22:59N 51°27' E 004°00'0 0.0
2017-Sep-18 22:29N 51°27' E 004°00'0 0.0
2017-Sep-18 21:59N 51°27' E 004°00'0 0.0
2017-Sep-18 21:29N 51°27' E 004°00'0 0.0
2017-Sep-18 20:59N 51°27' E 004°00'0 0.0
2017-Sep-18 20:29N 51°27' E 004°00'0 0.0
2017-Sep-18 19:59N 51°27' E 004°00'0 0.0
2017-Sep-18 19:23N 51°27' E 004°00'0 0.0
2017-Sep-18 18:59N 51°27' E 004°00'0 0.0
2017-Sep-18 18:29N 51°27' E 004°00'0 0.0
2017-Sep-18 17:59N 51°27' E 004°00'0 0.0
2017-Sep-18 17:29N 51°27' E 004°00'0 0.0
2017-Sep-18 16:59N 51°27' E 004°00'0 0.0
2017-Sep-18 16:29N 51°27' E 004°00'0 0.0
2017-Sep-18 15:59N 51°27' E 004°00'0 0.0
2017-Sep-18 15:29N 51°27' E 004°00'0 0.0
2017-Sep-18 14:59N 51°27' E 004°00'0 0.0
2017-Sep-18 14:29N 51°27' E 004°00'0 0.0
2017-Sep-18 13:53N 51°27' E 004°00'0 0.0
2017-Sep-18 13:29N 51°27' E 004°00'0 0.0
2017-Sep-18 12:56N 51°27' E 004°00'0 0.0
2017-Sep-18 12:26N 51°27' E 004°00'0 0.0
2017-Sep-18 11:59N 51°27' E 004°00'0 0.3
2017-Sep-18 11:29N 51°28' E 004°00'0 0.0
2017-Sep-18 11:00N 51°28' E 004°00'0 0.6
2017-Sep-18 10:30N 51°27' E 004°01'1 2.0
2017-Sep-18 10:00N 51°26' E 004°01'5 9.9
2017-Sep-18 09:30N 51°22' E 003°56'5 9.5
2017-Sep-18 09:00N 51°20' E 003°49'0 0.5
2017-Sep-18 08:31N 51°20' E 003°49'0 0.5
2017-Sep-18 08:01N 51°20' E 003°49'2 4.2
2017-Sep-18 07:31N 51°18' E 003°50'4 7.6
2017-Sep-18 07:01N 51°14' E 003°49'0 0.2
2017-Sep-18 06:29N 51°14' E 003°48'0 0.0
2017-Sep-18 05:59N 51°14' E 003°48'0 0.0
2017-Sep-18 05:29N 51°14' E 003°48'0 0.0
2017-Sep-18 04:59N 51°14' E 003°48'0 0.0
2017-Sep-18 04:29N 51°14' E 003°48'0 0.0
2017-Sep-18 03:59N 51°14' E 003°48'0 0.0
2017-Sep-18 03:29N 51°14' E 003°48'0 0.0
2017-Sep-18 02:59N 51°14' E 003°48'0 0.0
2017-Sep-18 02:29N 51°14' E 003°48'0 0.0
2017-Sep-18 01:59N 51°14' E 003°48'0 0.0
2017-Sep-18 01:29N 51°14' E 003°48'0 0.0
2017-Sep-18 00:59N 51°14' E 003°48'0 0.0
2017-Sep-18 00:29N 51°14' E 003°48'0 0.0
2017-Sep-17 23:59N 51°14' E 003°48'0 0.0
2017-Sep-17 23:29N 51°14' E 003°48'0 0.0
2017-Sep-17 22:59N 51°14' E 003°48'0 0.0
2017-Sep-17 22:30N 51°14' E 003°48'0 0.2
2017-Sep-17 21:59N 51°14' E 003°48'0 0.0
2017-Sep-17 21:30N 51°14' E 003°48'0 0.0
2017-Sep-17 20:59N 51°14' E 003°48'0 0.0
2017-Sep-17 20:29N 51°14' E 003°48'0 0.0
2017-Sep-17 19:59N 51°14' E 003°48'0 0.0
2017-Sep-17 19:29N 51°14' E 003°48'0 0.0
2017-Sep-17 18:59N 51°14' E 003°48'0 0.0
2017-Sep-17 18:29N 51°14' E 003°48'0 0.0
2017-Sep-17 17:59N 51°14' E 003°48'0 0.0
2017-Sep-17 17:30N 51°14' E 003°48'0 0.0
2017-Sep-17 16:59N 51°14' E 003°48'0 0.0
2017-Sep-17 16:29N 51°14' E 003°48'0 0.0
2017-Sep-17 16:00N 51°14' E 003°48'0 0.0
2017-Sep-17 15:29N 51°14' E 003°48'0 0.0
2017-Sep-17 14:59N 51°14' E 003°48'0 0.0
2017-Sep-17 14:29N 51°14' E 003°48'0 0.0
2017-Sep-17 13:59N 51°14' E 003°48'0 0.0
2017-Sep-17 13:29N 51°14' E 003°48'0 0.0
2017-Sep-17 13:00N 51°14' E 003°48'0 0.0
2017-Sep-17 12:29N 51°14' E 003°48'0 0.0
2017-Sep-17 11:59N 51°14' E 003°48'0 0.0
2017-Sep-17 11:29N 51°14' E 003°48'0 0.0
2017-Sep-17 10:59N 51°14' E 003°48'0 0.0
2017-Sep-17 10:29N 51°14' E 003°48'0 0.0
2017-Sep-17 10:00N 51°14' E 003°48'0 0.0
2017-Sep-17 09:29N 51°14' E 003°48'0 0.0
2017-Sep-17 08:59N 51°14' E 003°48'0 0.0
2017-Sep-17 08:29N 51°14' E 003°48'0 0.0
2017-Sep-17 07:59N 51°14' E 003°48'0 0.0
2017-Sep-17 07:29N 51°14' E 003°48'0 0.0
2017-Sep-17 06:59N 51°14' E 003°48'0 0.0
2017-Sep-17 06:29N 51°14' E 003°48'0 0.0
2017-Sep-17 05:59N 51°14' E 003°48'0 0.0
2017-Sep-17 05:29N 51°14' E 003°48'0 0.0
2017-Sep-17 04:59N 51°14' E 003°48'0 0.0
2017-Sep-17 04:29N 51°14' E 003°48'0 0.0
2017-Sep-17 03:59N 51°14' E 003°48'0 0.0
2017-Sep-17 03:30N 51°14' E 003°48'0 0.0
2017-Sep-17 02:59N 51°14' E 003°48'0 0.0
2017-Sep-17 02:30N 51°14' E 003°48'0 0.0
2017-Sep-17 02:00N 51°14' E 003°48'0 0.0
2017-Sep-17 01:29N 51°14' E 003°48'0 0.0
2017-Sep-17 00:59N 51°14' E 003°48'0 0.0
2017-Sep-17 00:30N 51°14' E 003°48'0 0.0
2017-Sep-16 23:59N 51°14' E 003°48'0 0.0
2017-Sep-16 23:30N 51°14' E 003°48'0 0.0
2017-Sep-16 22:59N 51°14' E 003°48'0 0.0
2017-Sep-16 22:30N 51°14' E 003°48'0 0.0
2017-Sep-16 21:59N 51°14' E 003°48'0 0.0
2017-Sep-16 21:29N 51°14' E 003°48'0 0.0
2017-Sep-16 20:59N 51°14' E 003°48'0 0.0
2017-Sep-16 20:29N 51°14' E 003°48'0 0.0
2017-Sep-16 19:59N 51°14' E 003°48'0 0.0
2017-Sep-16 19:29N 51°14' E 003°48'0 0.0
2017-Sep-16 18:59N 51°14' E 003°48'0 0.0
2017-Sep-16 18:29N 51°14' E 003°48'0 0.0
2017-Sep-16 17:59N 51°14' E 003°48'0 0.0
2017-Sep-16 17:30N 51°14' E 003°48'0 0.0
2017-Sep-16 16:59N 51°14' E 003°48'0 0.0
2017-Sep-16 16:29N 51°14' E 003°48'0 0.0
2017-Sep-16 16:00N 51°14' E 003°48'0 0.0
2017-Sep-16 15:29N 51°14' E 003°48'0 0.0
2017-Sep-16 14:59N 51°14' E 003°48'0 0.0
2017-Sep-16 14:29N 51°14' E 003°48'0 0.0
2017-Sep-16 13:59N 51°14' E 003°48'0 0.0
2017-Sep-16 13:29N 51°14' E 003°48'0 0.0
2017-Sep-16 12:59N 51°14' E 003°48'0 0.0
2017-Sep-16 12:27N 51°14' E 003°48'0 0.0
2017-Sep-16 11:59N 51°14' E 003°48'0 0.0
2017-Sep-16 11:29N 51°14' E 003°48'0 0.0
2017-Sep-16 10:59N 51°14' E 003°48'0 0.0
2017-Sep-16 10:29N 51°14' E 003°48'0 0.0
2017-Sep-16 10:01N 51°14' E 003°48'2 4.1
2017-Sep-16 09:31N 51°16' E 003°50'3 5.6
2017-Sep-16 09:00N 51°19' E 003°50'0 0.0
2017-Sep-16 08:30N 51°19' E 003°50'1 1.7
2017-Sep-16 08:00N 51°20' E 003°49'1 1.4
2017-Sep-16 07:30N 51°20' E 003°49'2 4.1
2017-Sep-16 07:00N 51°21' E 003°46'4 7.2
2017-Sep-16 06:30N 51°24' E 003°43'3 6.8
2017-Sep-16 06:00N 51°26' E 003°38'4 8.3
2017-Sep-16 05:30N 51°25' E 003°32'5 9.9
2017-Sep-16 05:00N 51°24' E 003°24'5 9.2
2017-Sep-16 04:30N 51°24' E 003°16'4 8.4
2017-Sep-16 04:00N 51°24' E 003°10'4 8.0
2017-Sep-16 03:30N 51°24' E 003°03'4 7.9
2017-Sep-16 03:00N 51°23' E 002°58'4 8.2
2017-Sep-16 02:30N 51°21' E 002°51'4 8.5
2017-Sep-16 02:00N 51°21' E 002°44'3 6.6
2017-Sep-16 01:30N 51°22' E 002°39'2 4.9
2017-Sep-16 01:00N 51°21' E 002°36'1 1.5
2017-Sep-16 00:28N 51°20' E 002°35'0 0.0
2017-Sep-15 23:58N 51°20' E 002°35'0 0.1
2017-Sep-15 23:28N 51°20' E 002°36'0 0.1
2017-Sep-15 22:58N 51°20' E 002°36'0 0.0
2017-Sep-15 22:28N 51°20' E 002°36'0 0.0
2017-Sep-15 21:55N 51°20' E 002°36'0 0.0
2017-Sep-15 21:28N 51°20' E 002°36'0 0.0
2017-Sep-15 20:55N 51°20' E 002°36'0 0.1
2017-Sep-15 20:28N 51°20' E 002°35'0 0.0
2017-Sep-15 19:58N 51°20' E 002°36'0 0.0
2017-Sep-15 19:28N 51°20' E 002°36'0 0.0
2017-Sep-15 18:58N 51°20' E 002°36'0 0.0
2017-Sep-15 18:28N 51°20' E 002°36'0 0.1
2017-Sep-15 17:58N 51°20' E 002°35'0 0.1
2017-Sep-15 17:28N 51°20' E 002°35'0 0.1
2017-Sep-15 16:58N 51°20' E 002°35'0 0.0
2017-Sep-15 16:28N 51°20' E 002°35'0 0.0
2017-Sep-15 15:58N 51°20' E 002°35'0 0.0
2017-Sep-15 15:28N 51°20' E 002°35'0 0.0
2017-Sep-15 14:58N 51°20' E 002°35'0 0.0
2017-Sep-15 14:28N 51°20' E 002°35'0 0.0
2017-Sep-15 13:58N 51°20' E 002°35'0 0.0
2017-Sep-15 13:28N 51°20' E 002°35'0 0.1
2017-Sep-15 12:58N 51°20' E 002°35'0 0.1
2017-Sep-15 12:28N 51°20' E 002°36'0 0.2
2017-Sep-15 11:59N 51°20' E 002°36'2 4.3
2017-Sep-15 11:31N 51°21' E 002°33'4 7.0
2017-Sep-15 11:01N 51°21' E 002°27'5 9.9
2017-Sep-15 10:31N 51°19' E 002°20'510.2
2017-Sep-15 10:00N 51°15' E 002°14'510.3
2017-Sep-15 09:30N 51°13' E 002°07'510.4
2017-Sep-15 09:01N 51°11' E 001°59'510.7
2017-Sep-15 08:30N 51°08' E 001°52'510.7
2017-Sep-15 08:00N 51°04' E 001°46'711.1
2017-Sep-15 07:24N 50°59' E 001°38'112 8.8
2017-Sep-14 18:33N 50°07' W 000°58'1 8.1
2017-Sep-14 18:29N 50°07' W 000°59'4 8.5
2017-Sep-14 18:00N 50°06' W 001°05'5 8.9
2017-Sep-14 17:29N 50°05' W 001°12'4 9.3
2017-Sep-14 17:00N 50°04' W 001°19'5 9.9
2017-Sep-14 16:30N 50°03' W 001°27'510.4
2017-Sep-14 16:00N 50°01' W 001°34'510.9
2017-Sep-14 15:30N 49°59' W 001°42'611.3
2017-Sep-14 15:00N 49°58' W 001°51'611.5
2017-Sep-14 14:30N 49°57' W 001°59'611.4
2017-Sep-14 14:00N 49°55' W 002°08'120 8.4
2017-Sep-13 23:44N 48°51' W 004°45'2 8.6
2017-Sep-13 23:31N 48°50' W 004°47'4 8.8
2017-Sep-13 23:00N 48°48' W 004°53'5 9.3
2017-Sep-13 22:31N 48°45' W 004°59'5 9.3
2017-Sep-13 22:00N 48°42' W 005°04'5 9.6
2017-Sep-13 21:30N 48°40' W 005°10'5 9.7
2017-Sep-13 21:01N 48°36' W 005°15'5 9.5
2017-Sep-13 20:31N 48°33' W 005°20'  

Dump ship's entire track history